createdAt,value
2019-02-14T00:00:08.884Z,40.77
2019-02-14T00:02:37.900Z,47.77
2019-02-14T00:05:06.881Z,40.70
2019-02-14T00:07:35.466Z,43.17
2019-02-14T00:10:06.504Z,42.90
2019-02-14T00:12:35.133Z,35.80
2019-02-14T00:15:04.827Z,51.93
2019-02-14T00:17:33.392Z,45.03
2019-02-14T00:20:01.990Z,47.83
2019-02-14T00:22:30.541Z,54.93
2019-02-14T00:24:59.100Z,44.83
2019-02-14T00:27:28.000Z,36.27
2019-02-14T00:30:15.899Z,42.23
2019-02-14T00:32:44.482Z,41.80
2019-02-14T00:35:13.115Z,38.90
2019-02-14T00:37:41.632Z,45.73
2019-02-14T00:40:10.427Z,44.57
2019-02-14T00:42:38.999Z,51.47
2019-02-14T00:45:08.135Z,46.33
2019-02-14T00:47:36.690Z,63.43
2019-02-14T00:50:07.385Z,54.33
2019-02-14T00:52:35.933Z,54.80
2019-02-14T00:55:06.137Z,46.67
2019-02-14T00:57:34.726Z,48.70
2019-02-14T01:00:05.965Z,39.33
2019-02-14T01:02:34.679Z,41.47
2019-02-14T01:05:03.495Z,40.33
2019-02-14T01:07:32.054Z,36.70
2019-02-14T01:10:00.633Z,37.63
2019-02-14T01:12:29.185Z,37.13
2019-02-14T01:14:57.801Z,53.20
2019-02-14T01:17:26.335Z,41.93
2019-02-14T01:19:54.795Z,46.13
2019-02-14T01:22:23.331Z,48.23
2019-02-14T01:24:51.892Z,44.83
2019-02-14T01:27:20.462Z,43.30
2019-02-14T01:29:48.958Z,41.67
2019-02-14T01:32:17.552Z,37.37
2019-02-14T01:34:46.105Z,38.93
2019-02-14T01:37:14.562Z,34.10
2019-02-14T01:39:43.099Z,40.00
2019-02-14T01:42:11.597Z,34.80
2019-02-14T01:44:40.176Z,32.97
2019-02-14T01:47:08.795Z,38.93
2019-02-14T01:49:37.296Z,39.47
2019-02-14T01:52:05.861Z,38.37
2019-02-14T01:54:34.724Z,41.60
2019-02-14T01:57:03.420Z,53.27
2019-02-14T01:59:31.990Z,43.97
2019-02-14T02:02:00.615Z,34.43
2019-02-14T02:04:29.197Z,30.80
2019-02-14T02:06:57.760Z,32.03
2019-02-14T02:09:26.438Z,37.17
2019-02-14T02:11:54.987Z,35.27
2019-02-14T02:14:23.543Z,34.83
2019-02-14T02:16:52.178Z,36.90
2019-02-14T02:19:20.620Z,37.13
2019-02-14T02:21:49.152Z,37.50
2019-02-14T02:24:17.709Z,36.63
2019-02-14T02:26:46.240Z,38.50
2019-02-14T02:29:14.784Z,37.40
2019-02-14T02:31:43.337Z,48.07
2019-02-14T02:34:11.910Z,40.60
2019-02-14T02:36:40.493Z,41.43
2019-02-14T02:39:09.058Z,39.60
2019-02-14T02:41:37.637Z,41.17
2019-02-14T02:44:06.192Z,35.10
2019-02-14T02:46:34.775Z,35.90
2019-02-14T02:49:03.350Z,39.50
2019-02-14T02:51:31.936Z,34.37
2019-02-14T02:54:00.502Z,37.53
2019-02-14T02:56:29.058Z,33.90
2019-02-14T02:58:57.638Z,37.30
2019-02-14T03:01:26.203Z,37.90
2019-02-14T03:03:54.783Z,36.60
2019-02-14T03:06:23.345Z,34.93
2019-02-14T03:08:51.840Z,36.73
2019-02-14T03:11:20.438Z,44.97
2019-02-14T03:13:49.006Z,51.63
2019-02-14T03:16:17.604Z,48.10
2019-02-14T03:18:46.161Z,46.20
2019-02-14T03:21:14.722Z,42.77
2019-02-14T03:23:43.306Z,45.37
2019-02-14T03:26:11.860Z,41.03
2019-02-14T03:28:40.444Z,52.63
2019-02-14T03:31:09.077Z,56.20
2019-02-14T03:33:37.635Z,57.80
2019-02-14T03:36:06.199Z,46.30
2019-02-14T03:38:34.778Z,42.77
2019-02-14T03:41:03.350Z,38.20
2019-02-14T03:43:32.353Z,45.03
2019-02-14T03:46:01.033Z,36.53
2019-02-14T03:48:29.598Z,35.30
2019-02-14T03:50:58.164Z,35.53
2019-02-14T03:53:26.738Z,35.50
2019-02-14T03:55:55.234Z,38.10
2019-02-14T03:58:23.884Z,44.30
2019-02-14T04:00:52.518Z,41.20
2019-02-14T04:03:21.059Z,44.37
2019-02-14T04:05:49.637Z,42.87
2019-02-14T04:08:18.197Z,40.67
2019-02-14T04:10:46.783Z,42.00
2019-02-14T04:13:15.601Z,45.37
2019-02-14T04:15:44.231Z,41.90
2019-02-14T04:18:13.193Z,44.03
2019-02-14T04:20:41.745Z,45.13
2019-02-14T04:23:10.332Z,41.60
2019-02-14T04:25:38.907Z,51.80
2019-02-14T04:28:07.472Z,44.90
2019-02-14T04:30:36.056Z,43.80
2019-02-14T04:33:04.687Z,42.20
2019-02-14T04:35:33.329Z,39.73
2019-02-14T04:38:01.886Z,44.53
2019-02-14T04:40:33.656Z,45.90
2019-02-14T04:43:00.696Z,46.30
2019-02-14T04:45:29.256Z,42.60
2019-02-14T04:47:57.841Z,44.37
2019-02-14T04:50:26.399Z,41.67
2019-02-14T04:52:54.982Z,40.10
2019-02-14T04:55:23.548Z,42.97
2019-02-14T04:57:52.106Z,41.13
2019-02-14T05:00:20.681Z,44.20
2019-02-14T05:02:49.247Z,40.50
2019-02-14T05:05:17.762Z,76.70
2019-02-14T05:07:46.241Z,58.37
2019-02-14T05:10:14.807Z,53.07
2019-02-14T05:12:43.382Z,47.17
2019-02-14T05:15:12.180Z,51.10
2019-02-14T05:17:40.782Z,55.83
2019-02-14T05:20:28.661Z,51.33
2019-02-14T05:22:57.248Z,51.17
2019-02-14T05:25:25.988Z,53.70
2019-02-14T05:27:54.577Z,51.20
2019-02-14T05:30:23.145Z,56.87
2019-02-14T05:32:51.785Z,59.20
2019-02-14T05:35:33.797Z,52.60
2019-02-14T05:38:02.383Z,55.63
2019-02-14T05:40:30.951Z,65.00
2019-02-14T05:42:59.842Z,56.43
2019-02-14T05:45:28.418Z,63.00
2019-02-14T05:47:57.004Z,60.10
2019-02-14T05:50:25.506Z,61.40
2019-02-14T05:52:54.373Z,61.13
2019-02-14T05:55:22.973Z,69.23
2019-02-14T05:57:51.450Z,89.07
2019-02-14T06:00:20.728Z,71.33
2019-02-14T06:02:49.373Z,58.03
2019-02-14T06:05:17.987Z,52.67
2019-02-14T06:07:46.525Z,69.43
2019-02-14T06:10:15.065Z,52.97
2019-02-14T06:12:44.555Z,52.37
2019-02-14T06:15:13.854Z,63.43
2019-02-14T06:17:42.462Z,61.43
2019-02-14T06:20:11.967Z,57.63
2019-02-14T06:22:59.980Z,58.77
2019-02-14T06:25:28.541Z,63.77
2019-02-14T06:27:57.411Z,59.80
2019-02-14T06:30:25.996Z,63.20
2019-02-14T06:32:57.527Z,66.77
2019-02-14T06:35:26.433Z,79.20
2019-02-14T06:37:55.011Z,65.47
2019-02-14T06:40:23.575Z,74.73
2019-02-14T06:42:52.186Z,80.90
2019-02-14T06:45:20.799Z,82.00
2019-02-14T06:47:49.654Z,87.03
2019-02-14T06:50:18.233Z,67.73
2019-02-14T06:52:46.808Z,64.43
2019-02-14T06:55:15.400Z,55.00
2019-02-14T06:57:43.959Z,56.97
2019-02-14T07:00:15.195Z,60.97
2019-02-14T07:02:43.871Z,67.67
2019-02-14T07:05:12.548Z,66.47
2019-02-14T07:07:41.180Z,70.33
2019-02-14T07:10:11.115Z,92.60
2019-02-14T07:12:39.778Z,92.43
2019-02-14T07:15:11.420Z,81.20
2019-02-14T07:17:40.059Z,82.97
2019-02-14T07:20:16.608Z,85.70
2019-02-14T07:22:45.244Z,73.87
2019-02-14T07:25:13.897Z,69.27
2019-02-14T07:27:42.460Z,64.50
2019-02-14T07:30:19.846Z,63.60
2019-02-14T07:32:48.407Z,72.87
2019-02-14T07:35:17.363Z,65.43
2019-02-14T07:37:45.953Z,62.17
2019-02-14T07:40:15.147Z,78.00
2019-02-14T07:42:43.844Z,66.43
2019-02-14T07:45:15.212Z,74.63
2019-02-14T07:47:43.787Z,74.87
2019-02-14T07:50:13.618Z,74.63
2019-02-14T07:52:42.325Z,63.30
2019-02-14T07:55:14.581Z,67.07
2019-02-14T07:57:43.155Z,59.30
2019-02-14T08:00:17.325Z,72.47
2019-02-14T08:02:45.890Z,73.43
2019-02-14T08:05:14.464Z,83.63
2019-02-14T08:07:43.040Z,72.03
2019-02-14T08:10:14.506Z,50.97
2019-02-14T08:12:43.025Z,52.00
2019-02-14T08:15:13.440Z,47.60
2019-02-14T08:17:42.104Z,43.37
2019-02-14T08:20:19.148Z,40.30
2019-02-14T08:22:47.715Z,35.43
2019-02-14T08:25:16.382Z,31.10
2019-02-14T08:27:44.961Z,30.90
2019-02-14T08:30:19.047Z,28.97
2019-02-14T08:32:47.639Z,30.87
2019-02-14T08:35:16.257Z,34.47
2019-02-14T08:37:46.036Z,32.23
2019-02-14T08:40:23.668Z,32.80
2019-02-14T08:42:52.262Z,33.80
2019-02-14T08:45:20.888Z,30.40
2019-02-14T08:47:49.452Z,31.47
2019-02-14T08:50:18.112Z,26.53
2019-02-14T08:52:46.742Z,28.17
2019-02-14T08:55:15.311Z,28.83
2019-02-14T08:57:43.906Z,25.07
2019-02-14T09:00:17.165Z,29.50
2019-02-14T09:02:45.757Z,24.30
2019-02-14T09:05:14.472Z,30.43
2019-02-14T09:07:43.056Z,28.57
2019-02-14T09:10:16.184Z,30.90
2019-02-14T09:12:44.742Z,27.63
2019-02-14T09:15:14.514Z,25.53
2019-02-14T09:17:43.111Z,23.57
2019-02-14T09:20:14.411Z,25.27
2019-02-14T09:22:42.970Z,24.57
2019-02-14T09:25:11.682Z,24.60
2019-02-14T09:27:40.287Z,21.40
2019-02-14T09:30:13.716Z,24.07
2019-02-14T09:32:42.442Z,22.13
2019-02-14T09:35:11.237Z,19.87
2019-02-14T09:37:39.789Z,20.33
2019-02-14T09:40:13.422Z,20.37
2019-02-14T09:42:42.123Z,23.20
2019-02-14T09:45:14.401Z,20.33
2019-02-14T09:47:43.036Z,20.63
2019-02-14T09:50:13.363Z,18.57
2019-02-14T09:52:42.306Z,17.83
2019-02-14T09:55:14.490Z,20.55
2019-02-14T09:57:43.066Z,20.30
2019-02-14T10:00:14.243Z,18.10
2019-02-14T10:02:42.947Z,18.90
2019-02-14T10:05:11.655Z,19.27
2019-02-14T10:07:40.181Z,20.23
2019-02-14T10:10:12.260Z,21.73
2019-02-14T10:12:40.806Z,20.08
2019-02-14T10:15:10.483Z,19.02
2019-02-14T10:17:39.028Z,18.53
2019-02-14T10:20:18.266Z,20.50
2019-02-14T10:22:46.843Z,18.90
2019-02-14T10:25:15.561Z,17.03
2019-02-14T10:27:44.180Z,18.30
2019-02-14T10:30:17.859Z,17.07
2019-02-14T10:32:46.557Z,19.17
2019-02-14T10:35:15.186Z,17.20
2019-02-14T10:37:44.079Z,17.70
2019-02-14T10:40:14.695Z,17.70
2019-02-14T10:42:43.175Z,16.50
2019-02-14T10:45:20.430Z,14.93
2019-02-14T10:47:49.053Z,14.07
2019-02-14T10:50:17.674Z,17.73
2019-02-14T10:52:46.795Z,17.00
2019-02-14T10:55:16.077Z,15.97
2019-02-14T10:57:44.783Z,14.43
2019-02-14T11:00:26.514Z,19.40
2019-02-14T11:02:55.171Z,17.17
2019-02-14T11:05:23.873Z,17.03
2019-02-14T11:07:52.520Z,19.93
2019-02-14T11:10:21.109Z,19.07
2019-02-14T11:12:49.680Z,21.00
2019-02-14T11:15:23.656Z,18.77
2019-02-14T11:17:52.129Z,17.90
2019-02-14T11:20:20.659Z,18.80
2019-02-14T11:22:49.534Z,20.63
2019-02-14T11:25:30.351Z,21.77
2019-02-14T11:27:58.943Z,20.37
2019-02-14T11:30:27.500Z,19.40
2019-02-14T11:32:56.088Z,20.03
2019-02-14T11:35:24.735Z,18.47
2019-02-14T11:37:53.313Z,18.73
2019-02-14T11:40:21.878Z,17.53
2019-02-14T11:42:50.424Z,20.07
2019-02-14T11:45:38.287Z,19.90
2019-02-14T11:48:06.844Z,20.10
2019-02-14T11:50:35.341Z,19.33
2019-02-14T11:53:03.983Z,21.27
2019-02-14T11:55:32.535Z,22.70
2019-02-14T11:58:01.121Z,17.93
2019-02-14T12:00:29.676Z,20.20
2019-02-14T12:02:58.120Z,18.60
2019-02-14T12:05:26.682Z,16.30
2019-02-14T12:07:55.240Z,26.30
2019-02-14T12:10:24.089Z,18.23
2019-02-14T12:12:52.650Z,20.23
2019-02-14T12:15:23.233Z,17.82
2019-02-14T12:17:51.533Z,16.93
2019-02-14T12:20:20.075Z,15.40
2019-02-14T12:22:48.597Z,17.97
2019-02-14T12:25:25.381Z,14.80
2019-02-14T12:27:53.964Z,15.37
2019-02-14T12:30:22.659Z,17.47
2019-02-14T12:32:51.236Z,18.83
2019-02-14T12:35:19.882Z,16.70
2019-02-14T12:37:48.438Z,18.53
2019-02-14T12:40:17.092Z,17.23
2019-02-14T12:42:45.723Z,19.37
2019-02-14T12:45:26.196Z,14.67
2019-02-14T12:47:55.267Z,19.00
2019-02-14T12:50:23.819Z,15.30
2019-02-14T12:52:52.331Z,19.27
2019-02-14T12:55:20.807Z,14.10
2019-02-14T12:57:49.362Z,14.90
2019-02-14T13:00:24.656Z,21.83
2019-02-14T13:02:53.332Z,15.80
2019-02-14T13:05:22.116Z,15.37
2019-02-14T13:07:50.673Z,16.17
2019-02-14T13:10:19.480Z,15.83
2019-02-14T13:12:48.156Z,18.17
2019-02-14T13:15:24.997Z,16.33
2019-02-14T13:17:53.611Z,13.93
2019-02-14T13:20:22.237Z,25.03
2019-02-14T13:22:50.917Z,21.07
2019-02-14T13:25:19.450Z,21.17
2019-02-14T13:27:47.930Z,14.03
2019-02-14T13:30:22.480Z,15.67
2019-02-14T13:32:51.027Z,18.30
2019-02-14T13:35:20.056Z,18.07
2019-02-14T13:37:48.682Z,18.30
2019-02-14T13:40:17.296Z,15.20
2019-02-14T13:42:45.895Z,19.27
2019-02-14T13:45:17.630Z,17.17
2019-02-14T13:47:46.151Z,18.23
2019-02-14T13:50:16.047Z,18.93
2019-02-14T13:52:44.797Z,15.57
2019-02-14T13:55:13.635Z,22.77
2019-02-14T13:57:42.224Z,19.03
2019-02-14T14:00:25.766Z,17.17
2019-02-14T14:02:54.298Z,16.77
2019-02-14T14:05:22.880Z,19.53
2019-02-14T14:07:51.365Z,20.10
2019-02-14T14:10:20.057Z,16.17
2019-02-14T14:12:48.704Z,21.23
2019-02-14T14:15:17.327Z,15.70
2019-02-14T14:17:46.252Z,17.37
2019-02-14T14:20:14.823Z,16.23
2019-02-14T14:22:43.376Z,19.43
2019-02-14T14:25:12.579Z,18.30
2019-02-14T14:27:41.616Z,18.03
2019-02-14T14:30:14.359Z,17.40
2019-02-14T14:32:42.917Z,18.10
2019-02-14T14:35:12.328Z,18.83
2019-02-14T14:37:41.073Z,20.93
2019-02-14T14:40:17.437Z,15.40
2019-02-14T14:42:50.565Z,16.47
2019-02-14T14:45:21.501Z,18.43
2019-02-14T14:47:50.047Z,21.87
2019-02-14T14:50:18.551Z,13.47
2019-02-14T14:52:47.104Z,18.00
2019-02-14T14:55:15.688Z,14.87
2019-02-14T14:57:44.257Z,20.87
2019-02-14T15:00:13.586Z,13.37
2019-02-14T15:02:42.195Z,19.20
2019-02-14T15:05:10.817Z,18.67
2019-02-14T15:07:39.409Z,13.70
2019-02-14T15:10:08.563Z,18.43
2019-02-14T15:12:37.145Z,16.87
2019-02-14T15:15:07.452Z,13.03
2019-02-14T15:17:35.927Z,18.03
2019-02-14T15:20:06.987Z,18.07
2019-02-14T15:22:35.553Z,17.30
2019-02-14T15:25:04.264Z,22.47
2019-02-14T15:27:32.766Z,18.93
2019-02-14T15:30:01.294Z,18.53
2019-02-14T15:32:30.023Z,19.30
2019-02-14T15:34:58.591Z,23.57
2019-02-14T15:37:27.541Z,20.47
2019-02-14T15:39:56.107Z,18.97
2019-02-14T15:42:25.020Z,26.00
2019-02-14T15:44:53.665Z,19.93
2019-02-14T15:47:22.232Z,20.60
2019-02-14T15:49:50.827Z,16.77
2019-02-14T15:52:19.384Z,18.40
2019-02-14T15:54:47.950Z,17.83
2019-02-14T15:57:18.259Z,20.57
2019-02-14T15:59:46.819Z,22.73
2019-02-14T16:02:15.466Z,17.30
2019-02-14T16:04:45.887Z,23.13
2019-02-14T16:07:15.420Z,19.07
2019-02-14T16:09:44.485Z,15.30
2019-02-14T16:12:13.091Z,19.33
2019-02-14T16:14:42.771Z,18.10
2019-02-14T16:17:13.723Z,15.87
2019-02-14T16:19:42.170Z,20.03
2019-02-14T16:22:10.699Z,18.47
2019-02-14T16:24:41.255Z,21.57
2019-02-14T16:27:09.528Z,19.67
2019-02-14T16:29:38.078Z,16.87
2019-02-14T16:32:06.607Z,18.20
2019-02-14T16:34:35.152Z,16.17
2019-02-14T16:37:04.613Z,16.60
2019-02-14T16:39:33.279Z,13.27
2019-02-14T16:42:01.790Z,15.83
2019-02-14T16:44:30.387Z,16.90
2019-02-14T16:46:59.286Z,17.47
2019-02-14T16:49:27.837Z,21.10
2019-02-14T16:51:56.400Z,17.93
2019-02-14T16:54:24.901Z,17.67
2019-02-14T16:56:53.490Z,14.17
2019-02-14T16:59:22.058Z,21.63
2019-02-14T17:01:50.695Z,31.13
2019-02-14T17:04:19.264Z,23.00
2019-02-14T17:07:07.187Z,25.50
2019-02-14T17:09:36.053Z,27.00
2019-02-14T17:12:04.591Z,26.70
2019-02-14T17:14:33.090Z,22.93
2019-02-14T17:17:01.998Z,22.90
2019-02-14T17:19:30.590Z,17.97
2019-02-14T17:21:59.154Z,24.87
2019-02-14T17:24:27.708Z,26.97
2019-02-14T17:26:56.283Z,31.73
2019-02-14T17:29:24.830Z,22.50
2019-02-14T17:31:53.460Z,18.07
2019-02-14T17:34:22.034Z,28.17
2019-02-14T17:36:50.579Z,18.03
2019-02-14T17:39:19.409Z,29.57
2019-02-14T17:41:47.894Z,31.57
2019-02-14T17:44:16.523Z,29.90
2019-02-14T17:46:48.777Z,27.17
2019-02-14T17:49:17.362Z,31.57
2019-02-14T17:51:46.310Z,35.80
2019-02-14T17:54:14.796Z,30.47
2019-02-14T17:56:43.460Z,33.13
2019-02-14T17:59:12.018Z,35.63
2019-02-14T18:01:40.575Z,30.63
2019-02-14T18:04:09.155Z,35.87
2019-02-14T18:06:37.789Z,36.80
2019-02-14T18:09:06.730Z,32.07
2019-02-14T18:11:35.434Z,39.30
2019-02-14T18:14:04.000Z,35.33
2019-02-14T18:16:32.595Z,41.70
2019-02-14T18:19:01.168Z,34.93
2019-02-14T18:21:29.759Z,39.57
2019-02-14T18:23:58.313Z,35.20
2019-02-14T18:26:26.836Z,33.40
2019-02-14T18:28:55.471Z,39.50
2019-02-14T18:31:24.032Z,46.37
2019-02-14T18:33:52.979Z,40.27
2019-02-14T18:36:21.540Z,41.60
2019-02-14T18:38:50.130Z,42.00
2019-02-14T18:41:18.683Z,39.07
2019-02-14T18:43:47.215Z,36.83
2019-02-14T18:46:15.714Z,41.57
2019-02-14T18:48:44.232Z,42.90
2019-02-14T18:51:12.943Z,41.87
2019-02-14T18:53:41.508Z,43.20
2019-02-14T18:56:10.078Z,37.30
2019-02-14T18:58:38.637Z,40.83
2019-02-14T19:01:07.191Z,40.27
2019-02-14T19:03:35.772Z,38.20
2019-02-14T19:06:04.359Z,41.63
2019-02-14T19:08:32.899Z,41.97
2019-02-14T19:11:01.494Z,43.47
2019-02-14T19:13:30.100Z,41.00
2019-02-14T19:15:58.684Z,34.40
2019-02-14T19:18:27.245Z,45.87
2019-02-14T19:20:55.962Z,40.97
2019-02-14T19:23:24.601Z,33.53
2019-02-14T19:25:53.190Z,41.60
2019-02-14T19:28:22.052Z,40.57
2019-02-14T19:30:50.621Z,45.13
2019-02-14T19:33:19.172Z,36.83
2019-02-14T19:35:47.752Z,42.83
2019-02-14T19:38:16.291Z,41.50
2019-02-14T19:40:45.257Z,46.23
2019-02-14T19:43:13.967Z,43.30
2019-02-14T19:45:42.502Z,41.90
2019-02-14T19:48:11.088Z,42.07
2019-02-14T19:50:39.962Z,46.30
2019-02-14T19:53:08.458Z,40.50
2019-02-14T19:55:36.998Z,41.63
2019-02-14T19:58:05.485Z,44.23
2019-02-14T20:00:34.087Z,46.03
2019-02-14T20:03:02.635Z,41.67
2019-02-14T20:05:31.343Z,37.93
2019-02-14T20:07:59.970Z,45.17
2019-02-14T20:10:28.845Z,42.50
2019-02-14T20:12:57.387Z,42.97
2019-02-14T20:15:25.935Z,46.80
2019-02-14T20:17:54.516Z,44.67
2019-02-14T20:20:23.433Z,42.27
2019-02-14T20:22:52.064Z,46.90
2019-02-14T20:25:25.924Z,48.23
2019-02-14T20:27:54.573Z,49.07
2019-02-14T20:30:23.215Z,52.47
2019-02-14T20:32:52.170Z,50.70
2019-02-14T20:35:20.739Z,46.63
2019-02-14T20:37:49.310Z,44.53
2019-02-14T20:40:17.891Z,44.53
2019-02-14T20:42:46.459Z,43.50
2019-02-14T20:45:15.563Z,42.77
2019-02-14T20:47:44.161Z,43.33
2019-02-14T20:50:14.437Z,37.43
2019-02-14T20:52:43.486Z,38.37
2019-02-14T20:55:15.264Z,45.13
2019-02-14T20:57:44.626Z,36.43
2019-02-14T21:00:15.093Z,46.90
2019-02-14T21:02:43.791Z,41.60
2019-02-14T21:05:12.541Z,42.23
2019-02-14T21:07:41.175Z,34.40
2019-02-14T21:10:09.865Z,40.73
2019-02-14T21:12:38.588Z,41.07
2019-02-14T21:15:09.523Z,39.33
2019-02-14T21:17:38.080Z,41.93
2019-02-14T21:20:09.746Z,41.93
2019-02-14T21:22:38.749Z,38.27
2019-02-14T21:25:08.673Z,57.03
2019-02-14T21:27:37.185Z,51.10
2019-02-14T21:30:09.615Z,45.13
2019-02-14T21:32:38.262Z,40.10
2019-02-14T21:35:07.593Z,34.83
2019-02-14T21:37:36.312Z,47.87
2019-02-14T21:40:10.859Z,40.13
2019-02-14T21:42:39.463Z,43.57
2019-02-14T21:45:11.396Z,36.07
2019-02-14T21:47:40.023Z,44.07
2019-02-14T21:50:10.723Z,47.20
2019-02-14T21:52:39.390Z,46.90
2019-02-14T21:55:12.984Z,42.93
2019-02-14T21:57:41.917Z,49.80
2019-02-14T22:00:14.855Z,44.20
2019-02-14T22:02:43.854Z,57.17
2019-02-14T22:05:12.456Z,62.77
2019-02-14T22:07:41.019Z,52.93
2019-02-14T22:10:11.683Z,57.77
2019-02-14T22:12:42.328Z,55.63
2019-02-14T22:15:16.178Z,49.57
2019-02-14T22:17:44.935Z,52.20
2019-02-14T22:20:13.917Z,48.73
2019-02-14T22:22:42.444Z,53.07
2019-02-14T22:25:11.556Z,58.90
2019-02-14T22:27:40.165Z,60.10
2019-02-14T22:30:18.291Z,53.60
2019-02-14T22:32:46.978Z,54.93
2019-02-14T22:35:15.614Z,59.00
2019-02-14T22:37:44.164Z,48.53
2019-02-14T22:40:13.792Z,51.00
2019-02-14T22:42:47.081Z,56.70
2019-02-14T22:45:14.249Z,64.37
2019-02-14T22:47:44.060Z,49.33
2019-02-14T22:50:13.569Z,41.50
2019-02-14T22:52:42.049Z,38.30
2019-02-14T22:55:11.976Z,51.93
2019-02-14T22:57:40.584Z,59.97
2019-02-14T23:00:14.974Z,50.97
2019-02-14T23:02:43.616Z,51.20
2019-02-14T23:05:12.163Z,52.50
2019-02-14T23:07:40.881Z,49.97
2019-02-14T23:10:09.624Z,64.73
2019-02-14T23:12:38.277Z,54.50
2019-02-14T23:15:07.962Z,54.63
2019-02-14T23:17:36.510Z,50.33
2019-02-14T23:20:06.515Z,53.27
2019-02-14T23:22:35.094Z,48.37
2019-02-14T23:25:04.557Z,62.63
2019-02-14T23:27:33.115Z,63.43
2019-02-14T23:30:01.651Z,62.53
2019-02-14T23:32:30.304Z,58.67
2019-02-14T23:34:58.879Z,54.83
2019-02-14T23:37:27.425Z,52.80
2019-02-14T23:39:55.965Z,59.77
2019-02-14T23:42:25.024Z,81.13
2019-02-14T23:44:53.576Z,62.13
2019-02-14T23:47:22.128Z,67.03
2019-02-14T23:49:50.724Z,63.47
2019-02-14T23:52:19.346Z,66.77
2019-02-14T23:54:47.897Z,59.73
2019-02-14T23:57:16.469Z,67.63
2019-02-14T23:59:45.091Z,53.67
